Kappa — LM6081 — position and weather

sailwx.info

Track history (hours):
 
Tides and Currents Weather Stations Pressure Air Temp Water Temp Dewpoint Dewpoint Depression Visibility Wind Speed Wind Dir Waves Ship Positions

Kappa

Last reported at 2017-Nov-16 09:06 UTC. Time now 2017-Dec-11 04:24 UTC.
Position N 70°59' E 026°02'.
Warning: this ship's position is 24 days out of date.

Length 12 m.

Type: Fishing. MMSI: 257317020.

Date/timePositionNaut miles runAvg speedWind from/ knotsBaromVisibWave heightAir tempDewpointWater temp
2017-Nov-16 09:06N 70°59' E 026°02'0 0.0
2017-Nov-16 08:57N 70°59' E 026°02'0 0.0
2017-Nov-16 08:30N 70°59' E 026°02'0 0.0
2017-Nov-16 07:59N 70°59' E 026°02'0 0.0
2017-Nov-16 07:30N 70°59' E 026°02'0 0.1
2017-Nov-16 06:52N 70°59' E 026°02'0 0.0
2017-Nov-16 06:28N 70°59' E 026°02'0 0.0
2017-Nov-16 05:55N 70°59' E 026°02'0 0.0
2017-Nov-16 05:22N 70°59' E 026°02'0 0.0
2017-Nov-16 04:52N 70°59' E 026°02'0 0.0
2017-Nov-16 04:28N 70°59' E 026°02'0 0.0
2017-Nov-16 03:58N 70°59' E 026°02'0 0.0
2017-Nov-16 03:28N 70°59' E 026°02'0 0.0
2017-Nov-16 02:58N 70°59' E 026°02'0 0.0
2017-Nov-16 02:28N 70°59' E 026°02'0 0.0
2017-Nov-16 01:58N 70°59' E 026°02'0 0.0
2017-Nov-16 01:28N 70°59' E 026°02'0 0.0
2017-Nov-16 00:58N 70°59' E 026°02'0 0.0
2017-Nov-16 00:28N 70°59' E 026°02'0 0.0
2017-Nov-15 23:58N 70°59' E 026°02'0 0.0
2017-Nov-15 23:28N 70°59' E 026°02'0 0.0
2017-Nov-15 22:55N 70°59' E 026°02'0 0.0
2017-Nov-15 22:28N 70°59' E 026°02'0 0.0
2017-Nov-15 21:55N 70°59' E 026°02'0 0.0
2017-Nov-15 21:28N 70°59' E 026°02'0 0.0
2017-Nov-15 20:55N 70°59' E 026°02'0 0.0
2017-Nov-15 20:25N 70°59' E 026°02'0 0.0
2017-Nov-15 19:58N 70°59' E 026°02'0 0.0
2017-Nov-15 19:28N 70°59' E 026°02'0 0.1
2017-Nov-15 18:28N 70°59' E 026°02'1 2.0
2017-Nov-15 18:00N 70°59' E 026°04'4 6.6
2017-Nov-15 17:26N 71°01' E 026°13'3 6.5
2017-Nov-15 16:58N 71°03' E 026°19'3 7.1
2017-Nov-15 16:29N 71°06' E 026°26'4 7.1
2017-Nov-15 15:59N 71°09' E 026°32'4 7.3
2017-Nov-15 15:30N 71°12' E 026°36'4 7.6
2017-Nov-15 14:59N 71°15' E 026°43'3 5.7
2017-Nov-15 14:30N 71°17' E 026°49'1 1.1
2017-Nov-15 14:00N 71°18' E 026°49'1 1.1
2017-Nov-15 13:30N 71°18' E 026°50'0 0.9
2017-Nov-15 12:59N 71°19' E 026°51'1 1.2
2017-Nov-15 12:30N 71°19' E 026°51'1 1.4
2017-Nov-15 12:00N 71°20' E 026°52'1 2.3
2017-Nov-15 11:29N 71°19' E 026°50'3 5.4
2017-Nov-15 11:00N 71°17' E 026°46'1 1.3
2017-Nov-15 10:30N 71°16' E 026°44'0 0.7
2017-Nov-15 10:00N 71°16' E 026°43'0 0.8
2017-Nov-15 09:30N 71°16' E 026°43'0 0.7
2017-Nov-15 09:00N 71°15' E 026°42'1 1.1
2017-Nov-15 08:30N 71°15' E 026°40'0 0.9
2017-Nov-15 08:00N 71°15' E 026°39'0 0.6
2017-Nov-15 07:30N 71°14' E 026°39'1 1.7
2017-Nov-15 07:00N 71°14' E 026°36'3 6.3
2017-Nov-15 06:30N 71°13' E 026°27'3 6.3
2017-Nov-15 05:59N 71°12' E 026°18'3 6.4
2017-Nov-15 05:30N 71°11' E 026°09'3 6.5
2017-Nov-15 05:00N 71°09' E 025°60'3 6.2
2017-Nov-15 04:30N 71°07' E 025°52'1 1.8
2017-Nov-15 04:00N 71°07' E 025°50'0 0.0
2017-Nov-15 03:30N 71°07' E 025°50'0 0.0
2017-Nov-15 03:00N 71°07' E 025°50'0 0.0
2017-Nov-15 02:30N 71°07' E 025°50'0 0.0
2017-Nov-15 02:00N 71°07' E 025°50'0 0.0
2017-Nov-15 01:30N 71°07' E 025°50'0 0.0
2017-Nov-15 01:00N 71°07' E 025°50'0 0.0
2017-Nov-15 00:30N 71°07' E 025°50'0 0.0
2017-Nov-15 00:00N 71°07' E 025°50'0 0.0
2017-Nov-14 23:30N 71°07' E 025°50'0 0.0
2017-Nov-14 23:00N 71°07' E 025°50'0 0.0
2017-Nov-14 22:30N 71°07' E 025°50'0 0.0
2017-Nov-14 22:00N 71°07' E 025°50'0 0.0
2017-Nov-14 21:27N 71°07' E 025°50'0 0.8
2017-Nov-14 21:00N 71°07' E 025°51'4 7.1
2017-Nov-14 20:30N 71°09' E 025°60'4 7.3
2017-Nov-14 19:59N 71°11' E 026°10'4 7.4
2017-Nov-14 19:30N 71°13' E 026°19'4 7.6
2017-Nov-14 19:00N 71°15' E 026°29'4 7.8
2017-Nov-14 18:29N 71°17' E 026°40'4 7.8
2017-Nov-14 18:00N 71°19' E 026°49'1 1.1
2017-Nov-14 17:30N 71°19' E 026°50'2 4.1
2017-Nov-14 17:00N 71°17' E 026°46'2 4.2
2017-Nov-14 16:30N 71°16' E 026°41'2 3.6
2017-Nov-14 16:00N 71°14' E 026°39'3 5.3
2017-Nov-14 15:30N 71°12' E 026°33'3 5.6
2017-Nov-14 15:00N 71°10' E 026°27'3 6.0
2017-Nov-14 14:30N 71°08' E 026°23'3 6.5
2017-Nov-14 14:00N 71°05' E 026°18'4 6.6
2017-Nov-14 13:25N 71°01' E 026°13'3 6.3
2017-Nov-14 13:00N 70°59' E 026°07'2 2.7
2017-Nov-14 12:21N 70°59' E 026°02'1 3.1
2017-Nov-14 12:00N 70°58' E 026°00'1 1.7
2017-Nov-14 11:30N 70°59' E 025°58'0 0.0
2017-Nov-14 11:00N 70°59' E 025°58'0 0.0
2017-Nov-14 10:30N 70°59' E 025°58'0 0.0
2017-Nov-14 10:00N 70°59' E 025°58'0 0.0
2017-Nov-14 09:30N 70°59' E 025°58'0 0.0
2017-Nov-14 09:00N 70°59' E 025°58'0 0.0
2017-Nov-14 08:30N 70°59' E 025°58'1 2.0
2017-Nov-14 07:57N 70°59' E 026°02'0 0.0
2017-Nov-14 07:00N 70°59' E 026°02'0 0.0
2017-Nov-14 06:30N 70°59' E 026°02'0 0.0
2017-Nov-14 06:00N 70°59' E 026°02'0 0.0
2017-Nov-14 05:27N 70°59' E 026°02'0 0.0
2017-Nov-14 04:57N 70°59' E 026°02'0 0.0
2017-Nov-14 04:27N 70°59' E 026°02'0 0.0
2017-Nov-14 03:56N 70°59' E 026°02'0 0.0
2017-Nov-14 03:29N 70°59' E 026°02'0 0.0
2017-Nov-14 02:59N 70°59' E 026°02'0 0.0
2017-Nov-14 02:29N 70°59' E 026°02'0 0.0
2017-Nov-14 01:59N 70°59' E 026°02'0 0.0
2017-Nov-14 01:26N 70°59' E 026°02'0 0.0
2017-Nov-14 00:59N 70°59' E 026°02'0 0.0
2017-Nov-14 00:29N 70°59' E 026°02'0 0.0
2017-Nov-13 23:50N 70°59' E 026°02'0 0.0
2017-Nov-13 23:29N 70°59' E 026°02'0 0.0
2017-Nov-13 22:59N 70°59' E 026°02'0 0.0
2017-Nov-13 22:29N 70°59' E 026°02'0 0.0
2017-Nov-13 21:59N 70°59' E 026°02'18 0.9
2017-Nov-13 02:00N 71°12' E 026°37'1 2.1
2017-Nov-13 01:30N 71°13' E 026°37'0 0.6
2017-Nov-13 01:00N 71°13' E 026°37'0 0.8
2017-Nov-13 00:30N 71°13' E 026°38'0 0.4
2017-Nov-13 00:00N 71°13' E 026°38'1 1.9
2017-Nov-12 23:30N 71°13' E 026°35'0 0.5
2017-Nov-12 23:00N 71°13' E 026°36'0 0.4
2017-Nov-12 22:30N 71°13' E 026°36'0 0.3
2017-Nov-12 22:00N 71°13' E 026°37'0 0.3
2017-Nov-12 21:30N 71°13' E 026°37'0 0.3
2017-Nov-12 20:59N 71°13' E 026°38'3 5.5
2017-Nov-12 20:30N 71°15' E 026°44'3 6.2
2017-Nov-12 20:00N 71°17' E 026°51'1 1.8
2017-Nov-12 19:30N 71°18' E 026°50'3 5.7
2017-Nov-12 18:59N 71°15' E 026°44'3 5.4
2017-Nov-12 18:30N 71°13' E 026°38'3 5.1
2017-Nov-12 17:59N 71°11' E 026°34'3 7.1
2017-Nov-12 17:30N 71°08' E 026°28'4 7.2
2017-Nov-12 16:59N 71°05' E 026°22'4 6.9
2017-Nov-12 16:27N 71°02' E 026°16'3 6.9
2017-Nov-12 16:00N 70°60' E 026°10'3 5.9
2017-Nov-12 15:30N 70°58' E 026°02'1 1.4
2017-Nov-12 14:59N 70°59' E 026°02'0 0.3
2017-Nov-12 14:20N 70°59' E 026°02'1 3.3
2017-Nov-12 14:00N 70°58' E 026°01'1 2.0
2017-Nov-12 13:30N 70°59' E 025°58'0 0.0
2017-Nov-12 13:00N 70°59' E 025°58'0 0.0
2017-Nov-12 12:30N 70°59' E 025°58'0 0.0
2017-Nov-12 12:00N 70°59' E 025°58'0 0.0
2017-Nov-12 11:30N 70°59' E 025°58'0 0.0
2017-Nov-12 11:00N 70°59' E 025°58'0 0.0
2017-Nov-12 10:30N 70°59' E 025°58'0 0.0
2017-Nov-12 10:00N 70°59' E 025°58'0 0.0
2017-Nov-12 09:30N 70°59' E 025°58'0 0.0
2017-Nov-12 09:00N 70°59' E 025°58'0 0.0
2017-Nov-12 08:30N 70°59' E 025°58'0 0.0
2017-Nov-12 08:00N 70°59' E 025°58'0 0.0
2017-Nov-12 07:30N 70°59' E 025°58'0 0.0
2017-Nov-12 07:00N 70°59' E 025°58'0 0.0
2017-Nov-12 06:30N 70°59' E 025°58'0 0.0
2017-Nov-12 06:00N 70°59' E 025°58'0 0.0
2017-Nov-12 05:31N 70°59' E 025°58'0 0.0
2017-Nov-12 05:01N 70°59' E 025°58'0 0.0
2017-Nov-12 04:31N 70°59' E 025°58'0 0.0
2017-Nov-12 03:57N 70°59' E 025°58'0 0.0
2017-Nov-12 03:30N 70°59' E 025°58'0 0.0
2017-Nov-12 03:01N 70°59' E 025°58'0 0.0
2017-Nov-12 02:31N 70°59' E 025°58'0 0.0
2017-Nov-12 02:01N 70°59' E 025°58'0 0.0
2017-Nov-12 01:31N 70°59' E 025°58'0 0.0
2017-Nov-12 01:01N 70°59' E 025°58'0 0.0
2017-Nov-12 00:31N 70°59' E 025°58'0 0.0
2017-Nov-12 00:01N 70°59' E 025°58'0 0.0
2017-Nov-11 23:31N 70°59' E 025°58'0 0.0
2017-Nov-11 23:01N 70°59' E 025°58'0 0.0
2017-Nov-11 22:31N 70°59' E 025°58'0 0.0
2017-Nov-11 22:01N 70°59' E 025°58'0 0.0
2017-Nov-11 21:28N 70°59' E 025°58'0 0.0
2017-Nov-11 21:01N 70°59' E 025°58'0 0.0
2017-Nov-11 20:31N 70°59' E 025°58'0 0.0
2017-Nov-11 20:01N 70°59' E 025°58'0 0.0
2017-Nov-11 19:31N 70°59' E 025°58'0 0.0
2017-Nov-11 18:58N 70°59' E 025°58'0 0.0
2017-Nov-11 18:28N 70°59' E 025°58'0 0.0
2017-Nov-11 17:58N 70°59' E 025°58'0 0.0
2017-Nov-11 17:28N 70°59' E 025°58'0 0.0
2017-Nov-11 16:58N 70°59' E 025°58'0 0.0
2017-Nov-11 16:28N 70°59' E 025°58'0 0.0
2017-Nov-11 15:58N 70°59' E 025°58'0 0.0
2017-Nov-11 15:28N 70°59' E 025°58'0 0.0
2017-Nov-11 14:58N 70°59' E 025°58'0 0.0
2017-Nov-11 14:28N 70°59' E 025°58'0 0.0
2017-Nov-11 13:58N 70°59' E 025°58'0 0.0
2017-Nov-11 13:28N 70°59' E 025°58'0 0.0
2017-Nov-11 12:58N 70°59' E 025°58'0 0.0
2017-Nov-11 12:28N 70°59' E 025°58'0 0.0
2017-Nov-11 11:58N 70°59' E 025°58'0 0.0
2017-Nov-11 11:28N 70°59' E 025°58'0 0.0
2017-Nov-11 10:58N 70°59' E 025°58'0 0.0
2017-Nov-11 10:28N 70°59' E 025°58'0 0.0
2017-Nov-11 09:58N 70°59' E 025°58'0 0.0
2017-Nov-11 09:28N 70°59' E 025°58'0 0.0
2017-Nov-11 08:58N 70°59' E 025°58'0 0.0
2017-Nov-11 08:28N 70°59' E 025°58'0 0.0
2017-Nov-11 07:58N 70°59' E 025°58'0 0.0
2017-Nov-11 07:28N 70°59' E 025°58'0 0.0
2017-Nov-11 06:58N 70°59' E 025°58'0 0.0
2017-Nov-11 06:28N 70°59' E 025°58'0 0.0
2017-Nov-11 05:58N 70°59' E 025°58'0 0.0
2017-Nov-11 05:28N 70°59' E 025°58'0 0.0
2017-Nov-11 04:58N 70°59' E 025°58'0 0.0
2017-Nov-11 04:28N 70°59' E 025°58'0 0.0
2017-Nov-11 03:58N 70°59' E 025°58'0 0.0
2017-Nov-11 03:28N 70°59' E 025°58'0 0.0
2017-Nov-11 02:58N 70°59' E 025°58'0 0.0
2017-Nov-11 02:28N 70°59' E 025°58'0 0.0
2017-Nov-11 01:58N 70°59' E 025°58'0 0.0
2017-Nov-11 01:28N 70°59' E 025°58'0 0.0
2017-Nov-11 00:58N 70°59' E 025°58'0 0.0
2017-Nov-11 00:28N 70°59' E 025°58'0 0.0
2017-Nov-10 23:58N 70°59' E 025°58'0 0.0
2017-Nov-10 23:28N 70°59' E 025°58'0 0.0
2017-Nov-10 22:58N 70°59' E 025°58'0 0.0
2017-Nov-10 22:28N 70°59' E 025°58'0 0.0
2017-Nov-10 21:58N 70°59' E 025°58'0 0.0
2017-Nov-10 21:28N 70°59' E 025°58'0 0.0
2017-Nov-10 20:58N 70°59' E 025°58'0 0.0
2017-Nov-10 20:28N 70°59' E 025°58'0 0.0
2017-Nov-10 19:58N 70°59' E 025°58'0 0.0
2017-Nov-10 19:28N 70°59' E 025°58'0 0.0
2017-Nov-10 18:58N 70°59' E 025°58'0 0.0
2017-Nov-10 18:28N 70°59' E 025°58'0 0.0
2017-Nov-10 17:58N 70°59' E 025°58'0 0.0
2017-Nov-10 17:28N 70°59' E 025°58'0 0.0
2017-Nov-10 16:58N 70°59' E 025°58'0 0.0
2017-Nov-10 16:28N 70°59' E 025°58'0 0.0
2017-Nov-10 15:58N 70°59' E 025°58'0 0.0
2017-Nov-10 15:28N 70°59' E 025°58'0 0.0
2017-Nov-10 14:58N 70°59' E 025°58'0 0.0
2017-Nov-10 14:28N 70°59' E 025°58'0 0.0
2017-Nov-10 13:58N 70°59' E 025°58'0 0.0
2017-Nov-10 13:28N 70°59' E 025°58'0 0.0
2017-Nov-10 12:58N 70°59' E 025°58'0 0.0
2017-Nov-10 12:28N 70°59' E 025°58'0 0.0
2017-Nov-10 11:58N 70°59' E 025°58'0 0.0
2017-Nov-10 11:28N 70°59' E 025°58'0 0.0
2017-Nov-10 10:58N 70°59' E 025°58'0 0.0
2017-Nov-10 10:28N 70°59' E 025°58'0 0.0
2017-Nov-10 09:58N 70°59' E 025°58'0 0.0
2017-Nov-10 09:28N 70°59' E 025°58'0 0.0
2017-Nov-10 08:58N 70°59' E 025°58'0 0.0
2017-Nov-10 08:28N 70°59' E 025°58'0 0.0
2017-Nov-10 07:58N 70°59' E 025°58'0 0.0
2017-Nov-10 07:28N 70°59' E 025°58'0 0.0
2017-Nov-10 06:58N 70°59' E 025°58'0 0.0
2017-Nov-10 06:28N 70°59' E 025°58'0 0.0
2017-Nov-10 05:58N 70°59' E 025°58'0 0.0
2017-Nov-10 05:28N 70°59' E 025°58'0 0.0
2017-Nov-10 04:58N 70°59' E 025°58'0 0.0
2017-Nov-10 04:28N 70°59' E 025°58'0 0.0
2017-Nov-10 03:58N 70°59' E 025°58'0 0.0
2017-Nov-10 03:28N 70°59' E 025°58'0 0.0
2017-Nov-10 02:58N 70°59' E 025°58'0 0.0
2017-Nov-10 02:28N 70°59' E 025°58'0 0.0
2017-Nov-10 01:58N 70°59' E 025°58'0 0.0
2017-Nov-10 01:28N 70°59' E 025°58'0 0.0
2017-Nov-10 00:58N 70°59' E 025°58'0 0.0
2017-Nov-10 00:28N 70°59' E 025°58'0 0.0
2017-Nov-10 00:00N 70°59' E 025°58'0 0.0
2017-Nov-09 23:28N 70°59' E 025°58'0 0.0
2017-Nov-09 22:57N 70°59' E 025°58'0 0.0
2017-Nov-09 22:30N 70°59' E 025°58'0 0.0
2017-Nov-09 22:00N 70°59' E 025°58'0 0.0
2017-Nov-09 21:30N 70°59' E 025°58'0 0.0
2017-Nov-09 21:00N 70°59' E 025°58'0 0.0
2017-Nov-09 20:30N 70°59' E 025°58'0 0.0
2017-Nov-09 20:00N 70°59' E 025°58'0 0.0
2017-Nov-09 19:30N 70°59' E 025°58'0 0.0
2017-Nov-09 19:00N 70°59' E 025°58'0 0.0
2017-Nov-09 18:30N 70°59' E 025°58'0 0.0
2017-Nov-09 18:00N 70°59' E 025°58'0 0.0
2017-Nov-09 17:30N 70°59' E 025°58'0 0.0
2017-Nov-09 17:00N 70°59' E 025°58'0 0.0
2017-Nov-09 16:30N 70°59' E 025°58'0 0.0
2017-Nov-09 16:00N 70°59' E 025°58'0 0.0
2017-Nov-09 15:30N 70°59' E 025°58'0 0.0
2017-Nov-09 15:00N 70°59' E 025°58'0 0.0
2017-Nov-09 14:30N 70°59' E 025°58'0 0.0
2017-Nov-09 14:00N 70°59' E 025°58'0 0.0
2017-Nov-09 13:30N 70°59' E 025°58'0 0.0
2017-Nov-09 13:00N 70°59' E 025°58'0 0.0
2017-Nov-09 12:30N 70°59' E 025°58'0 0.0
2017-Nov-09 12:00N 70°59' E 025°58'0 0.0
2017-Nov-09 11:30N 70°59' E 025°58'0 0.0
2017-Nov-09 11:00N 70°59' E 025°58'0 0.0
2017-Nov-09 10:30N 70°59' E 025°58'0 0.0
2017-Nov-09 10:00N 70°59' E 025°58'0 0.0
2017-Nov-09 09:30N 70°59' E 025°58'0 0.0
2017-Nov-09 09:00N 70°59' E 025°58'0 0.0
2017-Nov-09 08:30N 70°59' E 025°58'0 0.0
2017-Nov-09 07:58N 70°59' E 025°58'0 0.0
2017-Nov-09 07:31N 70°59' E 025°58'0 0.0
2017-Nov-09 07:01N 70°59' E 025°58'0 0.0
2017-Nov-09 06:28N 70°59' E 025°58'0 0.0
2017-Nov-09 05:58N 70°59' E 025°58'0 0.0
2017-Nov-09 05:28N 70°59' E 025°58'0 0.0
2017-Nov-09 05:01N 70°59' E 025°58'0 0.0
2017-Nov-09 04:28N 70°59' E 025°58'0 0.0
2017-Nov-09 04:01N 70°59' E 025°58'0 0.0
2017-Nov-09 03:31N 70°59' E 025°58'0 0.0
2017-Nov-09 03:01N 70°59' E 025°58'0 0.0
2017-Nov-09 02:31N 70°59' E 025°58'0 0.0
2017-Nov-09 01:58N 70°59' E 025°58'0 0.0
2017-Nov-09 01:31N 70°59' E 025°58'0 0.0
2017-Nov-09 01:01N 70°59' E 025°58'0 0.0
2017-Nov-09 00:30N 70°59' E 025°58'0 0.0
2017-Nov-09 00:00N 70°59' E 025°58'0 0.0
2017-Nov-08 23:30N 70°59' E 025°58'0 0.0
2017-Nov-08 23:00N 70°59' E 025°58'0 0.0
2017-Nov-08 22:30N 70°59' E 025°58'0 0.0
2017-Nov-08 21:57N 70°59' E 025°58'0 0.0
2017-Nov-08 21:30N 70°59' E 025°58'0 0.0
2017-Nov-08 21:00N 70°59' E 025°58'0 0.0
2017-Nov-08 20:30N 70°59' E 025°58'0 0.0
2017-Nov-08 20:00N 70°59' E 025°58'0 0.0
2017-Nov-08 19:30N 70°59' E 025°58'0 0.0
2017-Nov-08 18:57N 70°59' E 025°58'0 0.0
2017-Nov-08 18:30N 70°59' E 025°58'0 0.0
2017-Nov-08 18:00N 70°59' E 025°58'0 0.0
2017-Nov-08 17:30N 70°59' E 025°58'0 0.0
2017-Nov-08 17:00N 70°59' E 025°58'0 0.0
2017-Nov-08 16:27N 70°59' E 025°58'0 0.0
2017-Nov-08 16:00N 70°59' E 025°58'0 0.0
2017-Nov-08 15:30N 70°59' E 025°58'0 0.0
2017-Nov-08 15:00N 70°59' E 025°58'0 0.0
2017-Nov-08 14:30N 70°59' E 025°58'0 0.0
2017-Nov-08 13:30N 70°59' E 025°58'0 0.0
2017-Nov-08 12:36N 70°59' E 025°58'0 0.0
2017-Nov-08 12:27N 70°59' E 025°58'0 0.0
2017-Nov-08 11:48N 70°59' E 025°58'0 0.0
2017-Nov-08 09:03N 70°59' E 025°58'0 0.0
2017-Nov-08 09:00N 70°59' E 025°58'0 0.0
2017-Nov-08 08:30N 70°59' E 025°58'0 0.0
2017-Nov-08 08:00N 70°59' E 025°58'0 0.0
2017-Nov-08 07:27N 70°59' E 025°58'0 0.0
2017-Nov-08 07:00N 70°59' E 025°58'0 0.0
2017-Nov-08 06:30N 70°59' E 025°58'0 0.0
2017-Nov-08 06:00N 70°59' E 025°58'0 0.0
2017-Nov-08 05:30N 70°59' E 025°58'0 0.0
2017-Nov-08 05:00N 70°59' E 025°58'0 0.0
2017-Nov-08 04:30N 70°59' E 025°58'0 0.0
2017-Nov-08 04:00N 70°59' E 025°58'0 0.0
2017-Nov-08 03:30N 70°59' E 025°58'0 0.0
2017-Nov-08 03:00N 70°59' E 025°58'0 0.0
2017-Nov-08 02:30N 70°59' E 025°58'0 0.0
2017-Nov-08 02:00N 70°59' E 025°58'0 0.0
2017-Nov-08 01:30N 70°59' E 025°58'0 0.0
2017-Nov-08 01:00N 70°59' E 025°58'0 0.0
2017-Nov-08 00:30N 70°59' E 025°58'0 0.0
2017-Nov-08 00:00N 70°59' E 025°58'0 0.0
2017-Nov-07 22:39N 70°59' E 025°58'0 0.0
2017-Nov-07 22:30N 70°59' E 025°58'0 0.0
2017-Nov-07 22:00N 70°59' E 025°58'0 0.0
2017-Nov-07 21:30N 70°59' E 025°58'0 0.0
2017-Nov-07 21:00N 70°59' E 025°58'0 0.0
2017-Nov-07 20:30N 70°59' E 025°58'0 0.0
2017-Nov-07 20:00N 70°59' E 025°58'0 0.0
2017-Nov-07 19:30N 70°59' E 025°58'0 0.0
2017-Nov-07 19:00N 70°59' E 025°58'0 0.0
2017-Nov-07 18:27N 70°59' E 025°58'0 0.0
2017-Nov-07 18:00N 70°59' E 025°58'0 0.0
2017-Nov-07 17:30N 70°59' E 025°58'0 0.0
2017-Nov-07 17:00N 70°59' E 025°58'0 0.0
2017-Nov-07 16:30N 70°59' E 025°58'0 0.0
2017-Nov-07 16:00N 70°59' E 025°58'0 0.0
2017-Nov-07 15:27N 70°59' E 025°58'0 0.0
2017-Nov-07 15:00N 70°59' E 025°58'0 0.0
2017-Nov-07 14:30N 70°59' E 025°58'0 0.0
2017-Nov-07 14:00N 70°59' E 025°58'0 0.0
2017-Nov-07 13:30N 70°59' E 025°58'0 0.0
2017-Nov-07 13:00N 70°59' E 025°58'0 0.0
2017-Nov-07 12:30N 70°59' E 025°58'0 0.0
2017-Nov-07 12:00N 70°59' E 025°58'0 0.0
2017-Nov-07 11:30N 70°59' E 025°58'0 0.0
2017-Nov-07 11:00N 70°59' E 025°58'0 0.0
2017-Nov-07 10:30N 70°59' E 025°58'0 0.0
2017-Nov-07 10:00N 70°59' E 025°58'0 0.0
2017-Nov-07 09:30N 70°59' E 025°58'0 0.0
2017-Nov-07 09:00N 70°59' E 025°58'0 0.0
2017-Nov-07 08:30N 70°59' E 025°58'0 0.0
2017-Nov-07 08:00N 70°59' E 025°58'0 0.0
2017-Nov-07 07:30N 70°59' E 025°58'0 0.0
2017-Nov-07 07:00N 70°59' E 025°58'0 0.0
2017-Nov-07 06:30N 70°59' E 025°58'0 0.0
2017-Nov-07 06:00N 70°59' E 025°58'0 0.0
2017-Nov-07 05:30N 70°59' E 025°58'0 0.0
2017-Nov-07 05:00N 70°59' E 025°58'0 0.0
2017-Nov-07 04:30N 70°59' E 025°58'0 0.0
2017-Nov-07 04:00N 70°59' E 025°58'0 0.0
2017-Nov-07 03:30N 70°59' E 025°58'0 0.0
2017-Nov-07 03:00N 70°59' E 025°58'0 0.0
2017-Nov-07 02:30N 70°59' E 025°58'0 0.0
2017-Nov-07 02:00N 70°59' E 025°58'0 0.0
2017-Nov-07 01:30N 70°59' E 025°58'0 0.0
2017-Nov-07 01:00N 70°59' E 025°58'0 0.0
2017-Nov-07 00:30N 70°59' E 025°58'0 0.0
2017-Nov-07 00:00N 70°59' E 025°58'0 0.0
2017-Nov-06 23:30N 70°59' E 025°58'0 0.0
2017-Nov-06 23:00N 70°59' E 025°58'0 0.0
2017-Nov-06 22:30N 70°59' E 025°58'0 0.0
2017-Nov-06 22:00N 70°59' E 025°58'0 0.0
2017-Nov-06 21:30N 70°59' E 025°58'0 0.0
2017-Nov-06 21:00N 70°59' E 025°58'0 0.0
2017-Nov-06 20:30N 70°59' E 025°58'  
Track history (hours):
 
Tides and Currents Weather Stations Pressure Air Temp Water Temp Dewpoint Dewpoint Depression Visibility Wind Speed Wind Dir Waves Ship Positions

Kappa

Last reported at 2017-Nov-16 09:06 UTC. Time now 2017-Dec-11 04:24 UTC.
Position N 70°59' E 026°02'.
Warning: this ship's position is 24 days out of date.

Length 12 m.

Type: Fishing. MMSI: 257317020.

Date/timePositionNaut miles runAvg speedWind from/ knotsBaromVisibWave heightAir tempDewpointWater temp
2017-Nov-16 09:06N 70°59' E 026°02'0 0.0
2017-Nov-16 08:57N 70°59' E 026°02'0 0.0
2017-Nov-16 08:30N 70°59' E 026°02'0 0.0
2017-Nov-16 07:59N 70°59' E 026°02'0 0.0
2017-Nov-16 07:30N 70°59' E 026°02'0 0.1
2017-Nov-16 06:52N 70°59' E 026°02'0 0.0
2017-Nov-16 06:28N 70°59' E 026°02'0 0.0
2017-Nov-16 05:55N 70°59' E 026°02'0 0.0
2017-Nov-16 05:22N 70°59' E 026°02'0 0.0
2017-Nov-16 04:52N 70°59' E 026°02'0 0.0
2017-Nov-16 04:28N 70°59' E 026°02'0 0.0
2017-Nov-16 03:58N 70°59' E 026°02'0 0.0
2017-Nov-16 03:28N 70°59' E 026°02'0 0.0
2017-Nov-16 02:58N 70°59' E 026°02'0 0.0
2017-Nov-16 02:28N 70°59' E 026°02'0 0.0
2017-Nov-16 01:58N 70°59' E 026°02'0 0.0
2017-Nov-16 01:28N 70°59' E 026°02'0 0.0
2017-Nov-16 00:58N 70°59' E 026°02'0 0.0
2017-Nov-16 00:28N 70°59' E 026°02'0 0.0
2017-Nov-15 23:58N 70°59' E 026°02'0 0.0
2017-Nov-15 23:28N 70°59' E 026°02'0 0.0
2017-Nov-15 22:55N 70°59' E 026°02'0 0.0
2017-Nov-15 22:28N 70°59' E 026°02'0 0.0
2017-Nov-15 21:55N 70°59' E 026°02'0 0.0
2017-Nov-15 21:28N 70°59' E 026°02'0 0.0
2017-Nov-15 20:55N 70°59' E 026°02'0 0.0
2017-Nov-15 20:25N 70°59' E 026°02'0 0.0
2017-Nov-15 19:58N 70°59' E 026°02'0 0.0
2017-Nov-15 19:28N 70°59' E 026°02'0 0.1
2017-Nov-15 18:28N 70°59' E 026°02'1 2.0
2017-Nov-15 18:00N 70°59' E 026°04'4 6.6
2017-Nov-15 17:26N 71°01' E 026°13'3 6.5
2017-Nov-15 16:58N 71°03' E 026°19'3 7.1
2017-Nov-15 16:29N 71°06' E 026°26'4 7.1
2017-Nov-15 15:59N 71°09' E 026°32'4 7.3
2017-Nov-15 15:30N 71°12' E 026°36'4 7.6
2017-Nov-15 14:59N 71°15' E 026°43'3 5.7
2017-Nov-15 14:30N 71°17' E 026°49'1 1.1
2017-Nov-15 14:00N 71°18' E 026°49'1 1.1
2017-Nov-15 13:30N 71°18' E 026°50'0 0.9
2017-Nov-15 12:59N 71°19' E 026°51'1 1.2
2017-Nov-15 12:30N 71°19' E 026°51'1 1.4
2017-Nov-15 12:00N 71°20' E 026°52'1 2.3
2017-Nov-15 11:29N 71°19' E 026°50'3 5.4
2017-Nov-15 11:00N 71°17' E 026°46'1 1.3
2017-Nov-15 10:30N 71°16' E 026°44'0 0.7
2017-Nov-15 10:00N 71°16' E 026°43'0 0.8
2017-Nov-15 09:30N 71°16' E 026°43'0 0.7
2017-Nov-15 09:00N 71°15' E 026°42'1 1.1
2017-Nov-15 08:30N 71°15' E 026°40'0 0.9
2017-Nov-15 08:00N 71°15' E 026°39'0 0.6
2017-Nov-15 07:30N 71°14' E 026°39'1 1.7
2017-Nov-15 07:00N 71°14' E 026°36'3 6.3
2017-Nov-15 06:30N 71°13' E 026°27'3 6.3
2017-Nov-15 05:59N 71°12' E 026°18'3 6.4
2017-Nov-15 05:30N 71°11' E 026°09'3 6.5
2017-Nov-15 05:00N 71°09' E 025°60'3 6.2
2017-Nov-15 04:30N 71°07' E 025°52'1 1.8
2017-Nov-15 04:00N 71°07' E 025°50'0 0.0
2017-Nov-15 03:30N 71°07' E 025°50'0 0.0
2017-Nov-15 03:00N 71°07' E 025°50'0 0.0
2017-Nov-15 02:30N 71°07' E 025°50'0 0.0
2017-Nov-15 02:00N 71°07' E 025°50'0 0.0
2017-Nov-15 01:30N 71°07' E 025°50'0 0.0
2017-Nov-15 01:00N 71°07' E 025°50'0 0.0
2017-Nov-15 00:30N 71°07' E 025°50'0 0.0
2017-Nov-15 00:00N 71°07' E 025°50'0 0.0
2017-Nov-14 23:30N 71°07' E 025°50'0 0.0
2017-Nov-14 23:00N 71°07' E 025°50'0 0.0
2017-Nov-14 22:30N 71°07' E 025°50'0 0.0
2017-Nov-14 22:00N 71°07' E 025°50'0 0.0
2017-Nov-14 21:27N 71°07' E 025°50'0 0.8
2017-Nov-14 21:00N 71°07' E 025°51'4 7.1
2017-Nov-14 20:30N 71°09' E 025°60'4 7.3
2017-Nov-14 19:59N 71°11' E 026°10'4 7.4
2017-Nov-14 19:30N 71°13' E 026°19'4 7.6
2017-Nov-14 19:00N 71°15' E 026°29'4 7.8
2017-Nov-14 18:29N 71°17' E 026°40'4 7.8
2017-Nov-14 18:00N 71°19' E 026°49'1 1.1
2017-Nov-14 17:30N 71°19' E 026°50'2 4.1
2017-Nov-14 17:00N 71°17' E 026°46'2 4.2
2017-Nov-14 16:30N 71°16' E 026°41'2 3.6
2017-Nov-14 16:00N 71°14' E 026°39'3 5.3
2017-Nov-14 15:30N 71°12' E 026°33'3 5.6
2017-Nov-14 15:00N 71°10' E 026°27'3 6.0
2017-Nov-14 14:30N 71°08' E 026°23'3 6.5
2017-Nov-14 14:00N 71°05' E 026°18'4 6.6
2017-Nov-14 13:25N 71°01' E 026°13'3 6.3
2017-Nov-14 13:00N 70°59' E 026°07'2 2.7
2017-Nov-14 12:21N 70°59' E 026°02'1 3.1
2017-Nov-14 12:00N 70°58' E 026°00'1 1.7
2017-Nov-14 11:30N 70°59' E 025°58'0 0.0
2017-Nov-14 11:00N 70°59' E 025°58'0 0.0
2017-Nov-14 10:30N 70°59' E 025°58'0 0.0
2017-Nov-14 10:00N 70°59' E 025°58'0 0.0
2017-Nov-14 09:30N 70°59' E 025°58'0 0.0
2017-Nov-14 09:00N 70°59' E 025°58'0 0.0
2017-Nov-14 08:30N 70°59' E 025°58'1 2.0
2017-Nov-14 07:57N 70°59' E 026°02'0 0.0
2017-Nov-14 07:00N 70°59' E 026°02'0 0.0
2017-Nov-14 06:30N 70°59' E 026°02'0 0.0
2017-Nov-14 06:00N 70°59' E 026°02'0 0.0
2017-Nov-14 05:27N 70°59' E 026°02'0 0.0
2017-Nov-14 04:57N 70°59' E 026°02'0 0.0
2017-Nov-14 04:27N 70°59' E 026°02'0 0.0
2017-Nov-14 03:56N 70°59' E 026°02'0 0.0
2017-Nov-14 03:29N 70°59' E 026°02'0 0.0
2017-Nov-14 02:59N 70°59' E 026°02'0 0.0
2017-Nov-14 02:29N 70°59' E 026°02'0 0.0
2017-Nov-14 01:59N 70°59' E 026°02'0 0.0
2017-Nov-14 01:26N 70°59' E 026°02'0 0.0
2017-Nov-14 00:59N 70°59' E 026°02'0 0.0
2017-Nov-14 00:29N 70°59' E 026°02'0 0.0
2017-Nov-13 23:50N 70°59' E 026°02'0 0.0
2017-Nov-13 23:29N 70°59' E 026°02'0 0.0
2017-Nov-13 22:59N 70°59' E 026°02'0 0.0
2017-Nov-13 22:29N 70°59' E 026°02'0 0.0
2017-Nov-13 21:59N 70°59' E 026°02'18 0.9
2017-Nov-13 02:00N 71°12' E 026°37'1 2.1
2017-Nov-13 01:30N 71°13' E 026°37'0 0.6
2017-Nov-13 01:00N 71°13' E 026°37'0 0.8
2017-Nov-13 00:30N 71°13' E 026°38'0 0.4
2017-Nov-13 00:00N 71°13' E 026°38'1 1.9
2017-Nov-12 23:30N 71°13' E 026°35'0 0.5
2017-Nov-12 23:00N 71°13' E 026°36'0 0.4
2017-Nov-12 22:30N 71°13' E 026°36'0 0.3
2017-Nov-12 22:00N 71°13' E 026°37'0 0.3
2017-Nov-12 21:30N 71°13' E 026°37'0 0.3
2017-Nov-12 20:59N 71°13' E 026°38'3 5.5
2017-Nov-12 20:30N 71°15' E 026°44'3 6.2
2017-Nov-12 20:00N 71°17' E 026°51'1 1.8
2017-Nov-12 19:30N 71°18' E 026°50'3 5.7
2017-Nov-12 18:59N 71°15' E 026°44'3 5.4
2017-Nov-12 18:30N 71°13' E 026°38'3 5.1
2017-Nov-12 17:59N 71°11' E 026°34'3 7.1
2017-Nov-12 17:30N 71°08' E 026°28'4 7.2
2017-Nov-12 16:59N 71°05' E 026°22'4 6.9
2017-Nov-12 16:27N 71°02' E 026°16'3 6.9
2017-Nov-12 16:00N 70°60' E 026°10'3 5.9
2017-Nov-12 15:30N 70°58' E 026°02'1 1.4
2017-Nov-12 14:59N 70°59' E 026°02'0 0.3
2017-Nov-12 14:20N 70°59' E 026°02'1 3.3
2017-Nov-12 14:00N 70°58' E 026°01'1 2.0
2017-Nov-12 13:30N 70°59' E 025°58'0 0.0
2017-Nov-12 13:00N 70°59' E 025°58'0 0.0
2017-Nov-12 12:30N 70°59' E 025°58'0 0.0
2017-Nov-12 12:00N 70°59' E 025°58'0 0.0
2017-Nov-12 11:30N 70°59' E 025°58'0 0.0
2017-Nov-12 11:00N 70°59' E 025°58'0 0.0
2017-Nov-12 10:30N 70°59' E 025°58'0 0.0
2017-Nov-12 10:00N 70°59' E 025°58'0 0.0
2017-Nov-12 09:30N 70°59' E 025°58'0 0.0
2017-Nov-12 09:00N 70°59' E 025°58'0 0.0
2017-Nov-12 08:30N 70°59' E 025°58'0 0.0
2017-Nov-12 08:00N 70°59' E 025°58'0 0.0
2017-Nov-12 07:30N 70°59' E 025°58'0 0.0
2017-Nov-12 07:00N 70°59' E 025°58'0 0.0
2017-Nov-12 06:30N 70°59' E 025°58'0 0.0
2017-Nov-12 06:00N 70°59' E 025°58'0 0.0
2017-Nov-12 05:31N 70°59' E 025°58'0 0.0
2017-Nov-12 05:01N 70°59' E 025°58'0 0.0
2017-Nov-12 04:31N 70°59' E 025°58'0 0.0
2017-Nov-12 03:57N 70°59' E 025°58'0 0.0
2017-Nov-12 03:30N 70°59' E 025°58'0 0.0
2017-Nov-12 03:01N 70°59' E 025°58'0 0.0
2017-Nov-12 02:31N 70°59' E 025°58'0 0.0
2017-Nov-12 02:01N 70°59' E 025°58'0 0.0
2017-Nov-12 01:31N 70°59' E 025°58'0 0.0
2017-Nov-12 01:01N 70°59' E 025°58'0 0.0
2017-Nov-12 00:31N 70°59' E 025°58'0 0.0
2017-Nov-12 00:01N 70°59' E 025°58'0 0.0
2017-Nov-11 23:31N 70°59' E 025°58'0 0.0
2017-Nov-11 23:01N 70°59' E 025°58'0 0.0
2017-Nov-11 22:31N 70°59' E 025°58'0 0.0
2017-Nov-11 22:01N 70°59' E 025°58'0 0.0
2017-Nov-11 21:28N 70°59' E 025°58'0 0.0
2017-Nov-11 21:01N 70°59' E 025°58'0 0.0
2017-Nov-11 20:31N 70°59' E 025°58'0 0.0
2017-Nov-11 20:01N 70°59' E 025°58'0 0.0
2017-Nov-11 19:31N 70°59' E 025°58'0 0.0
2017-Nov-11 18:58N 70°59' E 025°58'0 0.0
2017-Nov-11 18:28N 70°59' E 025°58'0 0.0
2017-Nov-11 17:58N 70°59' E 025°58'0 0.0
2017-Nov-11 17:28N 70°59' E 025°58'0 0.0
2017-Nov-11 16:58N 70°59' E 025°58'0 0.0
2017-Nov-11 16:28N 70°59' E 025°58'0 0.0
2017-Nov-11 15:58N 70°59' E 025°58'0 0.0
2017-Nov-11 15:28N 70°59' E 025°58'0 0.0
2017-Nov-11 14:58N 70°59' E 025°58'0 0.0
2017-Nov-11 14:28N 70°59' E 025°58'0 0.0
2017-Nov-11 13:58N 70°59' E 025°58'0 0.0
2017-Nov-11 13:28N 70°59' E 025°58'0 0.0
2017-Nov-11 12:58N 70°59' E 025°58'0 0.0
2017-Nov-11 12:28N 70°59' E 025°58'0 0.0
2017-Nov-11 11:58N 70°59' E 025°58'0 0.0
2017-Nov-11 11:28N 70°59' E 025°58'0 0.0
2017-Nov-11 10:58N 70°59' E 025°58'0 0.0
2017-Nov-11 10:28N 70°59' E 025°58'0 0.0
2017-Nov-11 09:58N 70°59' E 025°58'0 0.0
2017-Nov-11 09:28N 70°59' E 025°58'0 0.0
2017-Nov-11 08:58N 70°59' E 025°58'0 0.0
2017-Nov-11 08:28N 70°59' E 025°58'0 0.0
2017-Nov-11 07:58N 70°59' E 025°58'0 0.0
2017-Nov-11 07:28N 70°59' E 025°58'0 0.0
2017-Nov-11 06:58N 70°59' E 025°58'0 0.0
2017-Nov-11 06:28N 70°59' E 025°58'0 0.0
2017-Nov-11 05:58N 70°59' E 025°58'0 0.0
2017-Nov-11 05:28N 70°59' E 025°58'0 0.0
2017-Nov-11 04:58N 70°59' E 025°58'0 0.0
2017-Nov-11 04:28N 70°59' E 025°58'0 0.0
2017-Nov-11 03:58N 70°59' E 025°58'0 0.0
2017-Nov-11 03:28N 70°59' E 025°58'0 0.0
2017-Nov-11 02:58N 70°59' E 025°58'0 0.0
2017-Nov-11 02:28N 70°59' E 025°58'0 0.0
2017-Nov-11 01:58N 70°59' E 025°58'0 0.0
2017-Nov-11 01:28N 70°59' E 025°58'0 0.0
2017-Nov-11 00:58N 70°59' E 025°58'0 0.0
2017-Nov-11 00:28N 70°59' E 025°58'0 0.0
2017-Nov-10 23:58N 70°59' E 025°58'0 0.0
2017-Nov-10 23:28N 70°59' E 025°58'0 0.0
2017-Nov-10 22:58N 70°59' E 025°58'0 0.0
2017-Nov-10 22:28N 70°59' E 025°58'0 0.0
2017-Nov-10 21:58N 70°59' E 025°58'0 0.0
2017-Nov-10 21:28N 70°59' E 025°58'0 0.0
2017-Nov-10 20:58N 70°59' E 025°58'0 0.0
2017-Nov-10 20:28N 70°59' E 025°58'0 0.0
2017-Nov-10 19:58N 70°59' E 025°58'0 0.0
2017-Nov-10 19:28N 70°59' E 025°58'0 0.0
2017-Nov-10 18:58N 70°59' E 025°58'0 0.0
2017-Nov-10 18:28N 70°59' E 025°58'0 0.0
2017-Nov-10 17:58N 70°59' E 025°58'0 0.0
2017-Nov-10 17:28N 70°59' E 025°58'0 0.0
2017-Nov-10 16:58N 70°59' E 025°58'0 0.0
2017-Nov-10 16:28N 70°59' E 025°58'0 0.0
2017-Nov-10 15:58N 70°59' E 025°58'0 0.0
2017-Nov-10 15:28N 70°59' E 025°58'0 0.0
2017-Nov-10 14:58N 70°59' E 025°58'0 0.0
2017-Nov-10 14:28N 70°59' E 025°58'0 0.0
2017-Nov-10 13:58N 70°59' E 025°58'0 0.0
2017-Nov-10 13:28N 70°59' E 025°58'0 0.0
2017-Nov-10 12:58N 70°59' E 025°58'0 0.0
2017-Nov-10 12:28N 70°59' E 025°58'0 0.0
2017-Nov-10 11:58N 70°59' E 025°58'0 0.0
2017-Nov-10 11:28N 70°59' E 025°58'0 0.0
2017-Nov-10 10:58N 70°59' E 025°58'0 0.0
2017-Nov-10 10:28N 70°59' E 025°58'0 0.0
2017-Nov-10 09:58N 70°59' E 025°58'0 0.0
2017-Nov-10 09:28N 70°59' E 025°58'0 0.0
2017-Nov-10 08:58N 70°59' E 025°58'0 0.0
2017-Nov-10 08:28N 70°59' E 025°58'0 0.0
2017-Nov-10 07:58N 70°59' E 025°58'0 0.0
2017-Nov-10 07:28N 70°59' E 025°58'0 0.0
2017-Nov-10 06:58N 70°59' E 025°58'0 0.0
2017-Nov-10 06:28N 70°59' E 025°58'0 0.0
2017-Nov-10 05:58N 70°59' E 025°58'0 0.0
2017-Nov-10 05:28N 70°59' E 025°58'0 0.0
2017-Nov-10 04:58N 70°59' E 025°58'0 0.0
2017-Nov-10 04:28N 70°59' E 025°58'0 0.0
2017-Nov-10 03:58N 70°59' E 025°58'0 0.0
2017-Nov-10 03:28N 70°59' E 025°58'0 0.0
2017-Nov-10 02:58N 70°59' E 025°58'0 0.0
2017-Nov-10 02:28N 70°59' E 025°58'0 0.0
2017-Nov-10 01:58N 70°59' E 025°58'0 0.0
2017-Nov-10 01:28N 70°59' E 025°58'0 0.0
2017-Nov-10 00:58N 70°59' E 025°58'0 0.0
2017-Nov-10 00:28N 70°59' E 025°58'0 0.0
2017-Nov-10 00:00N 70°59' E 025°58'0 0.0
2017-Nov-09 23:28N 70°59' E 025°58'0 0.0
2017-Nov-09 22:57N 70°59' E 025°58'0 0.0
2017-Nov-09 22:30N 70°59' E 025°58'0 0.0
2017-Nov-09 22:00N 70°59' E 025°58'0 0.0
2017-Nov-09 21:30N 70°59' E 025°58'0 0.0
2017-Nov-09 21:00N 70°59' E 025°58'0 0.0
2017-Nov-09 20:30N 70°59' E 025°58'0 0.0
2017-Nov-09 20:00N 70°59' E 025°58'0 0.0
2017-Nov-09 19:30N 70°59' E 025°58'0 0.0
2017-Nov-09 19:00N 70°59' E 025°58'0 0.0
2017-Nov-09 18:30N 70°59' E 025°58'0 0.0
2017-Nov-09 18:00N 70°59' E 025°58'0 0.0
2017-Nov-09 17:30N 70°59' E 025°58'0 0.0
2017-Nov-09 17:00N 70°59' E 025°58'0 0.0
2017-Nov-09 16:30N 70°59' E 025°58'0 0.0
2017-Nov-09 16:00N 70°59' E 025°58'0 0.0
2017-Nov-09 15:30N 70°59' E 025°58'0 0.0
2017-Nov-09 15:00N 70°59' E 025°58'0 0.0
2017-Nov-09 14:30N 70°59' E 025°58'0 0.0
2017-Nov-09 14:00N 70°59' E 025°58'0 0.0
2017-Nov-09 13:30N 70°59' E 025°58'0 0.0
2017-Nov-09 13:00N 70°59' E 025°58'0 0.0
2017-Nov-09 12:30N 70°59' E 025°58'0 0.0
2017-Nov-09 12:00N 70°59' E 025°58'0 0.0
2017-Nov-09 11:30N 70°59' E 025°58'0 0.0
2017-Nov-09 11:00N 70°59' E 025°58'0 0.0
2017-Nov-09 10:30N 70°59' E 025°58'0 0.0
2017-Nov-09 10:00N 70°59' E 025°58'0 0.0
2017-Nov-09 09:30N 70°59' E 025°58'0 0.0
2017-Nov-09 09:00N 70°59' E 025°58'0 0.0
2017-Nov-09 08:30N 70°59' E 025°58'0 0.0
2017-Nov-09 07:58N 70°59' E 025°58'0 0.0
2017-Nov-09 07:31N 70°59' E 025°58'0 0.0
2017-Nov-09 07:01N 70°59' E 025°58'0 0.0
2017-Nov-09 06:28N 70°59' E 025°58'0 0.0
2017-Nov-09 05:58N 70°59' E 025°58'0 0.0
2017-Nov-09 05:28N 70°59' E 025°58'0 0.0
2017-Nov-09 05:01N 70°59' E 025°58'0 0.0
2017-Nov-09 04:28N 70°59' E 025°58'0 0.0
2017-Nov-09 04:01N 70°59' E 025°58'0 0.0
2017-Nov-09 03:31N 70°59' E 025°58'0 0.0
2017-Nov-09 03:01N 70°59' E 025°58'0 0.0
2017-Nov-09 02:31N 70°59' E 025°58'0 0.0
2017-Nov-09 01:58N 70°59' E 025°58'0 0.0
2017-Nov-09 01:31N 70°59' E 025°58'0 0.0
2017-Nov-09 01:01N 70°59' E 025°58'0 0.0
2017-Nov-09 00:30N 70°59' E 025°58'0 0.0
2017-Nov-09 00:00N 70°59' E 025°58'0 0.0
2017-Nov-08 23:30N 70°59' E 025°58'0 0.0
2017-Nov-08 23:00N 70°59' E 025°58'0 0.0
2017-Nov-08 22:30N 70°59' E 025°58'0 0.0
2017-Nov-08 21:57N 70°59' E 025°58'0 0.0
2017-Nov-08 21:30N 70°59' E 025°58'0 0.0
2017-Nov-08 21:00N 70°59' E 025°58'0 0.0
2017-Nov-08 20:30N 70°59' E 025°58'0 0.0
2017-Nov-08 20:00N 70°59' E 025°58'0 0.0
2017-Nov-08 19:30N 70°59' E 025°58'0 0.0
2017-Nov-08 18:57N 70°59' E 025°58'0 0.0
2017-Nov-08 18:30N 70°59' E 025°58'0 0.0
2017-Nov-08 18:00N 70°59' E 025°58'0 0.0
2017-Nov-08 17:30N 70°59' E 025°58'0 0.0
2017-Nov-08 17:00N 70°59' E 025°58'0 0.0
2017-Nov-08 16:27N 70°59' E 025°58'0 0.0
2017-Nov-08 16:00N 70°59' E 025°58'0 0.0
2017-Nov-08 15:30N 70°59' E 025°58'0 0.0
2017-Nov-08 15:00N 70°59' E 025°58'0 0.0
2017-Nov-08 14:30N 70°59' E 025°58'0 0.0
2017-Nov-08 13:30N 70°59' E 025°58'0 0.0
2017-Nov-08 12:36N 70°59' E 025°58'0 0.0
2017-Nov-08 12:27N 70°59' E 025°58'0 0.0
2017-Nov-08 11:48N 70°59' E 025°58'0 0.0
2017-Nov-08 09:03N 70°59' E 025°58'0 0.0
2017-Nov-08 09:00N 70°59' E 025°58'0 0.0
2017-Nov-08 08:30N 70°59' E 025°58'0 0.0
2017-Nov-08 08:00N 70°59' E 025°58'0 0.0
2017-Nov-08 07:27N 70°59' E 025°58'0 0.0
2017-Nov-08 07:00N 70°59' E 025°58'0 0.0
2017-Nov-08 06:30N 70°59' E 025°58'0 0.0
2017-Nov-08 06:00N 70°59' E 025°58'0 0.0
2017-Nov-08 05:30N 70°59' E 025°58'0 0.0
2017-Nov-08 05:00N 70°59' E 025°58'0 0.0
2017-Nov-08 04:30N 70°59' E 025°58'0 0.0
2017-Nov-08 04:00N 70°59' E 025°58'0 0.0
2017-Nov-08 03:30N 70°59' E 025°58'0 0.0
2017-Nov-08 03:00N 70°59' E 025°58'0 0.0
2017-Nov-08 02:30N 70°59' E 025°58'0 0.0
2017-Nov-08 02:00N 70°59' E 025°58'0 0.0
2017-Nov-08 01:30N 70°59' E 025°58'0 0.0
2017-Nov-08 01:00N 70°59' E 025°58'0 0.0
2017-Nov-08 00:30N 70°59' E 025°58'0 0.0
2017-Nov-08 00:00N 70°59' E 025°58'0 0.0
2017-Nov-07 22:39N 70°59' E 025°58'0 0.0
2017-Nov-07 22:30N 70°59' E 025°58'0 0.0
2017-Nov-07 22:00N 70°59' E 025°58'0 0.0
2017-Nov-07 21:30N 70°59' E 025°58'0 0.0
2017-Nov-07 21:00N 70°59' E 025°58'0 0.0
2017-Nov-07 20:30N 70°59' E 025°58'0 0.0
2017-Nov-07 20:00N 70°59' E 025°58'0 0.0
2017-Nov-07 19:30N 70°59' E 025°58'0 0.0
2017-Nov-07 19:00N 70°59' E 025°58'0 0.0
2017-Nov-07 18:27N 70°59' E 025°58'0 0.0
2017-Nov-07 18:00N 70°59' E 025°58'0 0.0
2017-Nov-07 17:30N 70°59' E 025°58'0 0.0
2017-Nov-07 17:00N 70°59' E 025°58'0 0.0
2017-Nov-07 16:30N 70°59' E 025°58'0 0.0
2017-Nov-07 16:00N 70°59' E 025°58'0 0.0
2017-Nov-07 15:27N 70°59' E 025°58'0 0.0
2017-Nov-07 15:00N 70°59' E 025°58'0 0.0
2017-Nov-07 14:30N 70°59' E 025°58'0 0.0
2017-Nov-07 14:00N 70°59' E 025°58'0 0.0
2017-Nov-07 13:30N 70°59' E 025°58'0 0.0
2017-Nov-07 13:00N 70°59' E 025°58'0 0.0
2017-Nov-07 12:30N 70°59' E 025°58'0 0.0
2017-Nov-07 12:00N 70°59' E 025°58'0 0.0
2017-Nov-07 11:30N 70°59' E 025°58'0 0.0
2017-Nov-07 11:00N 70°59' E 025°58'0 0.0
2017-Nov-07 10:30N 70°59' E 025°58'0 0.0
2017-Nov-07 10:00N 70°59' E 025°58'0 0.0
2017-Nov-07 09:30N 70°59' E 025°58'0 0.0
2017-Nov-07 09:00N 70°59' E 025°58'0 0.0
2017-Nov-07 08:30N 70°59' E 025°58'0 0.0
2017-Nov-07 08:00N 70°59' E 025°58'0 0.0
2017-Nov-07 07:30N 70°59' E 025°58'0 0.0
2017-Nov-07 07:00N 70°59' E 025°58'0 0.0
2017-Nov-07 06:30N 70°59' E 025°58'0 0.0
2017-Nov-07 06:00N 70°59' E 025°58'0 0.0
2017-Nov-07 05:30N 70°59' E 025°58'0 0.0
2017-Nov-07 05:00N 70°59' E 025°58'0 0.0
2017-Nov-07 04:30N 70°59' E 025°58'0 0.0
2017-Nov-07 04:00N 70°59' E 025°58'0 0.0
2017-Nov-07 03:30N 70°59' E 025°58'0 0.0
2017-Nov-07 03:00N 70°59' E 025°58'0 0.0
2017-Nov-07 02:30N 70°59' E 025°58'0 0.0
2017-Nov-07 02:00N 70°59' E 025°58'0 0.0
2017-Nov-07 01:30N 70°59' E 025°58'0 0.0
2017-Nov-07 01:00N 70°59' E 025°58'0 0.0
2017-Nov-07 00:30N 70°59' E 025°58'0 0.0
2017-Nov-07 00:00N 70°59' E 025°58'0 0.0
2017-Nov-06 23:30N 70°59' E 025°58'0 0.0
2017-Nov-06 23:00N 70°59' E 025°58'0 0.0
2017-Nov-06 22:30N 70°59' E 025°58'0 0.0
2017-Nov-06 22:00N 70°59' E 025°58'0 0.0
2017-Nov-06 21:30N 70°59' E 025°58'0 0.0
2017-Nov-06 21:00N 70°59' E 025°58'0 0.0
2017-Nov-06 20:30N 70°59' E 025°58'  

Dump ship's entire track history